createdAt,value
2023-01-19T07:59:39.509Z,44.90
2023-01-19T08:00:39.420Z,43.67
2023-01-19T08:01:39.522Z,42.32
2023-01-19T08:02:39.420Z,41.64
2023-01-19T08:03:39.427Z,41.00
2023-01-19T08:04:39.565Z,40.87
2023-01-19T08:05:39.420Z,40.02
2023-01-19T08:06:39.432Z,39.55
2023-01-19T08:07:39.499Z,39.33
2023-01-19T08:08:39.340Z,39.18
2023-01-19T08:09:39.330Z,39.03
2023-01-19T08:10:39.336Z,38.82
2023-01-19T08:11:39.340Z,38.87
2023-01-19T08:12:39.353Z,38.26
2023-01-19T08:13:39.431Z,37.75
2023-01-19T08:14:39.339Z,37.53
2023-01-19T08:15:39.366Z,35.82
2023-01-19T08:16:39.340Z,36.18
2023-01-19T08:17:39.349Z,36.52
2023-01-19T08:18:39.260Z,37.33
2023-01-19T08:19:41.543Z,36.83
2023-01-19T08:20:39.300Z,36.88
2023-01-19T08:21:39.294Z,36.89
2023-01-19T08:22:39.266Z,37.42
2023-01-19T08:23:39.302Z,38.17
2023-01-19T08:24:39.246Z,36.00
2023-01-19T08:25:39.259Z,36.31
2023-01-19T08:26:39.259Z,36.26
2023-01-19T08:27:39.264Z,36.76
2023-01-19T08:28:39.280Z,36.24
2023-01-19T08:29:39.179Z,36.67
2023-01-19T08:30:39.215Z,36.79
2023-01-19T08:31:39.334Z,36.83
2023-01-19T08:32:39.187Z,37.17
2023-01-19T08:33:39.262Z,37.70
2023-01-19T08:34:39.190Z,37.59
2023-01-19T08:35:39.283Z,38.38
2023-01-19T08:36:39.241Z,37.88
2023-01-19T08:37:39.204Z,37.45
2023-01-19T08:38:39.160Z,38.38
2023-01-19T08:39:39.291Z,38.58
2023-01-19T08:40:39.170Z,38.52
2023-01-19T08:41:39.186Z,38.15
2023-01-19T08:42:39.402Z,39.98
2023-01-19T08:43:39.249Z,38.43
2023-01-19T08:44:46.692Z,38.57
2023-01-19T08:45:40.091Z,35.40
2023-01-19T08:46:39.521Z,33.30
2023-01-19T08:47:39.222Z,32.51
2023-01-19T08:48:40.003Z,30.98
